createdAt,value
2018-07-17T00:02:04.453Z,16.40
2018-07-17T00:05:09.733Z,16.40
2018-07-17T00:08:14.126Z,16.60
2018-07-17T00:11:18.776Z,16.60
2018-07-17T00:14:23.137Z,16.40
2018-07-17T00:17:27.391Z,16.00
2018-07-17T00:20:31.838Z,15.70
2018-07-17T00:23:36.083Z,15.60
2018-07-17T00:26:40.409Z,15.30
2018-07-17T00:29:44.717Z,15.50
2018-07-17T00:32:49.028Z,15.50
2018-07-17T00:35:53.249Z,15.40
2018-07-17T00:38:57.560Z,15.70
2018-07-17T00:42:02.704Z,15.80
2018-07-17T00:45:07.078Z,15.60
2018-07-17T00:48:11.417Z,15.60
2018-07-17T00:51:15.787Z,15.60
2018-07-17T00:54:20.633Z,15.40
2018-07-17T00:57:25.988Z,15.50
2018-07-17T01:00:35.655Z,15.70
2018-07-17T01:03:45.225Z,15.40
2018-07-17T01:06:55.344Z,15.30
2018-07-17T01:10:05.124Z,15.10
2018-07-17T01:13:13.735Z,14.90
2018-07-17T01:16:18.510Z,15.10
2018-07-17T01:19:22.970Z,15.20
2018-07-17T01:22:28.385Z,15.50
2018-07-17T01:25:32.841Z,15.10
2018-07-17T01:28:37.316Z,15.40
2018-07-17T01:31:42.053Z,15.50
2018-07-17T01:34:46.441Z,15.20
2018-07-17T01:37:50.806Z,15.10
2018-07-17T01:40:55.398Z,15.10
2018-07-17T01:43:59.795Z,15.30
2018-07-17T01:47:05.032Z,15.20
2018-07-17T01:50:09.378Z,15.20
2018-07-17T01:53:13.809Z,15.30
2018-07-17T01:56:18.174Z,15.30
2018-07-17T01:59:22.808Z,15.50
2018-07-17T02:02:27.311Z,15.40
2018-07-17T02:05:31.739Z,15.30
2018-07-17T02:08:36.701Z,15.20
2018-07-17T02:11:41.194Z,15.40
2018-07-17T02:14:45.680Z,15.40
2018-07-17T02:17:50.100Z,15.40
2018-07-17T02:20:54.613Z,15.30
2018-07-17T02:23:58.855Z,15.10
2018-07-17T02:27:03.546Z,14.90
2018-07-17T02:30:07.916Z,15.10
2018-07-17T02:33:12.234Z,15.20
2018-07-17T02:36:16.633Z,15.00
2018-07-17T02:39:20.953Z,14.80
2018-07-17T02:42:25.540Z,14.70
2018-07-17T02:45:29.815Z,14.60
2018-07-17T02:48:34.161Z,14.70
2018-07-17T02:51:38.519Z,14.60
2018-07-17T02:54:43.489Z,14.90
2018-07-17T02:57:48.008Z,14.70
2018-07-17T03:00:52.318Z,14.70
2018-07-17T03:03:56.707Z,14.60
2018-07-17T03:07:01.211Z,14.90
2018-07-17T03:10:05.814Z,14.80
2018-07-17T03:13:10.278Z,15.00
2018-07-17T03:16:14.641Z,14.90
2018-07-17T03:19:18.856Z,14.70
2018-07-17T03:22:23.310Z,14.60
2018-07-17T03:25:27.717Z,14.40
2018-07-17T03:28:32.336Z,14.40
2018-07-17T03:31:36.815Z,14.30
2018-07-17T03:34:41.500Z,14.70
2018-07-17T03:37:46.234Z,14.70
2018-07-17T03:40:50.642Z,14.50
2018-07-17T03:43:55.196Z,14.60
2018-07-17T03:46:59.685Z,14.70
2018-07-17T03:50:04.160Z,14.80
2018-07-17T03:53:08.644Z,14.90
2018-07-17T03:56:13.025Z,14.90
2018-07-17T03:59:17.993Z,14.80
2018-07-17T04:02:22.546Z,14.70
2018-07-17T04:05:26.852Z,14.90
2018-07-17T04:08:31.471Z,14.70
2018-07-17T04:11:36.108Z,14.60
2018-07-17T04:14:40.879Z,14.60
2018-07-17T04:17:45.579Z,14.70
2018-07-17T04:20:50.189Z,14.70
2018-07-17T04:23:56.748Z,14.60
2018-07-17T04:27:01.047Z,14.90
2018-07-17T04:30:06.234Z,14.60
2018-07-17T04:33:10.676Z,14.70
2018-07-17T04:36:15.118Z,15.00
2018-07-17T04:39:25.792Z,15.10
2018-07-17T04:42:31.298Z,15.30
2018-07-17T04:45:35.695Z,15.40
2018-07-17T04:48:40.101Z,15.50
2018-07-17T04:51:44.329Z,15.70
2018-07-17T04:54:48.642Z,15.90
2018-07-17T04:57:53.313Z,16.20
2018-07-17T05:00:58.065Z,16.40
2018-07-17T05:04:02.384Z,16.70
2018-07-17T05:07:06.694Z,16.80
2018-07-17T05:10:10.956Z,16.80
2018-07-17T05:13:15.163Z,16.80
2018-07-17T05:16:19.713Z,16.80
2018-07-17T05:19:23.993Z,16.80
2018-07-17T05:22:28.370Z,17.00
2018-07-17T05:25:32.875Z,17.20
2018-07-17T05:28:37.988Z,17.10
2018-07-17T05:31:42.237Z,17.10
2018-07-17T05:34:46.494Z,17.10
2018-07-17T05:37:50.827Z,17.20
2018-07-17T05:40:55.112Z,17.30
2018-07-17T05:43:59.365Z,17.50
2018-07-17T05:47:03.636Z,17.50
2018-07-17T05:50:08.687Z,17.50
2018-07-17T05:53:13.874Z,17.60
2018-07-17T05:56:18.115Z,17.70
2018-07-17T05:59:22.921Z,17.70
2018-07-17T06:02:27.230Z,18.00
2018-07-17T06:05:31.837Z,18.30
2018-07-17T06:08:36.321Z,18.60
2018-07-17T06:11:40.662Z,18.50
2018-07-17T06:14:45.103Z,18.80
2018-07-17T06:17:49.510Z,18.60
2018-07-17T06:20:53.702Z,18.60
2018-07-17T06:23:58.328Z,20.20
2018-07-17T06:27:03.565Z,22.20
2018-07-17T06:30:08.638Z,24.10
2018-07-17T06:33:12.793Z,25.30
2018-07-17T06:36:17.091Z,26.90
2018-07-17T06:39:21.628Z,28.40
2018-07-17T06:42:25.923Z,29.70
2018-07-17T06:45:30.646Z,29.50
2018-07-17T06:48:35.100Z,30.80
2018-07-17T06:51:39.609Z,30.60
2018-07-17T06:54:44.105Z,28.10
2018-07-17T06:57:48.451Z,29.90
2018-07-17T07:00:53.623Z,31.10
2018-07-17T07:03:58.009Z,32.50
2018-07-17T07:07:02.364Z,33.30
2018-07-17T07:10:07.023Z,33.60
2018-07-17T07:13:11.218Z,34.20
2018-07-17T07:16:15.623Z,35.10
2018-07-17T07:19:20.473Z,34.80
2018-07-17T07:22:25.230Z,35.10
2018-07-17T07:25:29.545Z,35.40
2018-07-17T07:28:33.808Z,35.60
2018-07-17T07:31:38.081Z,35.40
2018-07-17T07:34:42.372Z,35.90
2018-07-17T07:37:46.615Z,36.20
2018-07-17T07:43:55.022Z,36.50
2018-07-17T07:47:00.974Z,36.70
2018-07-17T07:50:05.296Z,36.40
2018-07-17T07:53:09.658Z,36.50
2018-07-17T07:56:13.953Z,36.10
2018-07-17T07:59:18.521Z,35.90
2018-07-17T08:02:22.705Z,34.50
2018-07-17T08:05:27.042Z,33.80
2018-07-17T08:08:31.541Z,33.60
2018-07-17T08:11:36.677Z,34.00
2018-07-17T08:14:41.064Z,34.90
2018-07-17T08:17:45.414Z,35.70
2018-07-17T08:20:49.933Z,35.80
2018-07-17T08:23:54.159Z,35.60
2018-07-17T08:26:58.456Z,35.50
2018-07-17T08:30:02.783Z,35.10
2018-07-17T08:33:08.370Z,36.70
2018-07-17T08:36:12.756Z,35.80
2018-07-17T08:39:17.066Z,36.20
2018-07-17T08:42:21.355Z,35.40
2018-07-17T08:45:25.905Z,34.50
2018-07-17T08:48:30.648Z,33.90
2018-07-17T08:51:35.182Z,35.00
2018-07-17T08:54:39.969Z,36.10
2018-07-17T08:57:44.213Z,36.00
2018-07-17T09:00:48.458Z,36.30
2018-07-17T09:03:52.758Z,36.60
2018-07-17T09:06:57.114Z,36.30
2018-07-17T09:10:01.624Z,36.20
2018-07-17T09:13:05.981Z,35.00
2018-07-17T09:16:10.486Z,34.70
2018-07-17T09:19:15.375Z,35.00
2018-07-17T09:22:19.725Z,35.90
2018-07-17T09:25:24.111Z,35.20
2018-07-17T09:28:28.459Z,35.10
2018-07-17T09:31:33.123Z,34.70
2018-07-17T09:34:37.402Z,34.80
2018-07-17T09:37:41.772Z,34.80
2018-07-17T09:40:46.215Z,35.10
2018-07-17T09:43:51.329Z,35.00
2018-07-17T09:46:55.658Z,33.70
2018-07-17T09:50:00.055Z,34.00
2018-07-17T09:53:04.422Z,34.20
2018-07-17T09:56:08.722Z,34.40
2018-07-17T09:59:12.941Z,33.70
2018-07-17T10:02:22.638Z,33.70
2018-07-17T10:05:27.080Z,34.20
2018-07-17T10:08:31.643Z,34.00
2018-07-17T10:11:35.867Z,33.80
2018-07-17T10:14:40.128Z,34.40
2018-07-17T10:17:44.280Z,35.00
2018-07-17T10:20:48.491Z,35.40
2018-07-17T10:23:52.916Z,34.70
2018-07-17T10:26:57.821Z,34.80
2018-07-17T10:30:02.099Z,34.90
2018-07-17T10:33:06.486Z,34.90
2018-07-17T10:36:10.789Z,35.30
2018-07-17T10:39:15.064Z,35.50
2018-07-17T10:42:19.660Z,35.40
2018-07-17T10:48:28.675Z,35.30
2018-07-17T10:51:33.141Z,35.80
2018-07-17T10:54:37.509Z,35.10
2018-07-17T10:57:41.780Z,34.10
2018-07-17T11:00:46.322Z,33.50
2018-07-17T11:03:50.481Z,33.30
2018-07-17T11:06:54.627Z,32.10
2018-07-17T11:09:58.778Z,30.90
2018-07-17T11:13:03.370Z,31.30
2018-07-17T11:16:07.593Z,32.00
2018-07-17T11:19:11.868Z,33.20
2018-07-17T11:22:17.096Z,33.40
2018-07-17T11:25:21.336Z,33.20
2018-07-17T11:28:25.741Z,33.00
2018-07-17T11:31:30.663Z,32.20
2018-07-17T11:34:35.266Z,32.40
2018-07-17T11:37:39.915Z,31.70
2018-07-17T11:40:44.276Z,30.50
2018-07-17T11:43:48.506Z,30.90
2018-07-17T11:46:52.674Z,30.80
2018-07-17T11:49:56.831Z,31.20
2018-07-17T11:53:01.031Z,31.00
2018-07-17T11:56:05.317Z,30.90
2018-07-17T11:59:09.808Z,30.80
2018-07-17T12:02:13.992Z,31.10
2018-07-17T12:05:18.429Z,31.30
2018-07-17T12:08:22.694Z,31.50
2018-07-17T12:11:26.968Z,30.70
2018-07-17T12:14:31.602Z,30.10
2018-07-17T12:17:35.952Z,30.00
2018-07-17T12:20:40.221Z,30.30
2018-07-17T12:23:44.564Z,30.70
2018-07-17T12:26:48.879Z,30.70
2018-07-17T12:29:53.164Z,30.90
2018-07-17T12:32:57.388Z,30.70
2018-07-17T12:36:01.853Z,30.90
2018-07-17T12:39:08.453Z,30.80
2018-07-17T12:42:12.763Z,30.90
2018-07-17T12:45:17.742Z,31.00
2018-07-17T12:48:22.056Z,30.70
2018-07-17T12:51:26.386Z,30.60
2018-07-17T12:54:31.113Z,30.70
2018-07-17T12:57:35.679Z,30.60
2018-07-17T13:00:39.892Z,30.50
2018-07-17T13:03:44.302Z,30.30
2018-07-17T13:06:48.465Z,30.40
2018-07-17T13:09:53.627Z,30.40
2018-07-17T13:12:57.858Z,30.40
2018-07-17T13:16:03.119Z,30.60
2018-07-17T13:19:07.416Z,30.40
2018-07-17T13:22:12.043Z,30.40
2018-07-17T13:25:16.285Z,30.60
2018-07-17T13:28:20.623Z,30.50
2018-07-17T13:31:25.438Z,30.70
2018-07-17T13:34:29.773Z,30.50
2018-07-17T13:37:34.343Z,30.60
2018-07-17T13:40:38.563Z,30.40
2018-07-17T13:43:43.013Z,30.30
2018-07-17T13:46:47.207Z,30.10
2018-07-17T13:49:51.361Z,30.30
2018-07-17T13:52:55.592Z,30.30
2018-07-17T13:55:59.952Z,30.20
2018-07-17T13:59:04.147Z,30.20
2018-07-17T14:02:08.380Z,30.30
2018-07-17T14:05:15.902Z,30.10
2018-07-17T14:08:20.034Z,30.30
2018-07-17T14:11:24.195Z,30.30
2018-07-17T14:14:28.437Z,30.10
2018-07-17T14:17:33.263Z,30.00
2018-07-17T14:20:38.075Z,30.20
2018-07-17T14:23:42.299Z,29.90
2018-07-17T14:26:46.729Z,29.90
2018-07-17T14:29:51.661Z,29.80
2018-07-17T14:32:55.979Z,30.00
2018-07-17T14:36:01.580Z,30.00
2018-07-17T14:39:08.820Z,30.10
2018-07-17T14:42:13.086Z,30.20
2018-07-17T14:45:17.321Z,30.30
2018-07-17T14:48:21.521Z,30.20
2018-07-17T14:51:25.645Z,29.90
2018-07-17T14:54:30.147Z,29.70
2018-07-17T14:57:34.295Z,29.70
2018-07-17T15:00:39.241Z,29.80
2018-07-17T15:06:47.899Z,30.00
2018-07-17T15:09:52.332Z,30.10
2018-07-17T15:12:56.769Z,30.20
2018-07-17T15:16:01.275Z,30.10
2018-07-17T15:19:05.833Z,29.80
2018-07-17T15:22:10.132Z,29.60
2018-07-17T15:25:14.493Z,29.40
2018-07-17T15:28:18.963Z,29.20
2018-07-17T15:31:23.255Z,29.10
2018-07-17T15:34:27.686Z,28.90
2018-07-17T15:37:32.380Z,28.80
2018-07-17T15:40:36.571Z,29.00
2018-07-17T15:43:40.826Z,29.00
2018-07-17T15:46:45.590Z,29.20
2018-07-17T15:49:49.945Z,29.10
2018-07-17T15:52:54.254Z,29.00
2018-07-17T15:55:58.749Z,28.90
2018-07-17T15:59:03.392Z,29.00
2018-07-17T16:02:07.629Z,29.10
2018-07-17T16:05:12.031Z,29.10
2018-07-17T16:08:16.365Z,29.20
2018-07-17T16:11:21.293Z,29.10
2018-07-17T16:14:26.051Z,29.10
2018-07-17T16:17:30.029Z,29.00
2018-07-17T16:20:34.406Z,29.00
2018-07-17T16:23:38.631Z,29.10
2018-07-17T16:26:43.152Z,29.10
2018-07-17T16:29:47.304Z,29.30
2018-07-17T16:32:51.471Z,29.30
2018-07-17T16:35:56.176Z,29.20
2018-07-17T16:39:00.485Z,29.10
2018-07-17T16:42:04.912Z,28.90
2018-07-17T16:45:09.153Z,28.70
2018-07-17T16:48:13.694Z,28.60
2018-07-17T16:51:17.855Z,28.40
2018-07-17T16:54:22.016Z,28.30
2018-07-17T16:57:26.256Z,28.20
2018-07-17T17:00:30.948Z,28.10
2018-07-17T17:03:35.364Z,28.10
2018-07-17T17:06:39.548Z,28.10
2018-07-17T17:09:43.847Z,28.10
2018-07-17T17:12:47.990Z,28.20
2018-07-17T17:15:52.128Z,28.20
2018-07-17T17:18:56.726Z,28.30
2018-07-17T17:22:01.716Z,28.20
2018-07-17T17:25:05.886Z,28.10
2018-07-17T17:28:10.567Z,28.10
2018-07-17T17:31:15.002Z,28.10
2018-07-17T17:34:19.244Z,28.00
2018-07-17T17:37:23.770Z,27.90
2018-07-17T17:40:28.249Z,27.80
2018-07-17T17:43:33.213Z,27.80
2018-07-17T17:46:38.749Z,27.70
2018-07-17T17:49:43.038Z,27.70
2018-07-17T17:52:47.437Z,27.60
2018-07-17T17:55:52.663Z,27.50
2018-07-17T17:58:56.963Z,27.40
2018-07-17T18:02:01.288Z,27.30
2018-07-17T18:05:05.836Z,27.10
2018-07-17T18:08:11.218Z,27.20
2018-07-17T18:11:15.572Z,27.10
2018-07-17T18:14:20.180Z,27.10
2018-07-17T18:17:24.525Z,26.90
2018-07-17T18:20:29.551Z,26.80
2018-07-17T18:23:36.736Z,26.80
2018-07-17T18:26:41.104Z,26.70
2018-07-17T18:29:48.071Z,26.60
2018-07-17T18:33:00.732Z,26.60
2018-07-17T18:38:19.412Z,26.50
2018-07-17T18:41:24.523Z,26.40
2018-07-17T18:44:34.615Z,26.30
2018-07-17T18:47:40.619Z,26.20
2018-07-17T18:54:47.846Z,26.10
2018-07-17T18:57:53.413Z,25.90
2018-07-17T19:00:58.187Z,25.80
2018-07-17T19:04:06.402Z,25.70
2018-07-17T20:39:52.475Z,25.20
2018-07-17T21:28:57.551Z,21.60
2018-07-17T21:32:01.880Z,20.90
2018-07-17T21:35:06.343Z,20.80
2018-07-17T21:38:10.743Z,20.80
2018-07-17T21:41:15.525Z,20.70
2018-07-17T21:44:20.020Z,20.90
2018-07-17T21:47:24.215Z,20.90
2018-07-17T21:50:28.568Z,20.80
2018-07-17T21:53:33.025Z,20.80
2018-07-17T21:56:37.512Z,20.80
2018-07-17T21:59:41.735Z,20.70
2018-07-17T22:02:46.855Z,20.60
2018-07-17T22:05:51.156Z,20.50
2018-07-17T22:08:55.413Z,20.40
2018-07-17T22:11:59.773Z,20.40
2018-07-17T22:15:04.072Z,20.20
2018-07-17T22:18:08.266Z,20.20
2018-07-17T22:21:12.751Z,20.20
2018-07-17T22:24:16.897Z,20.10
2018-07-17T22:27:22.114Z,20.20
2018-07-17T22:30:26.347Z,20.10
2018-07-17T22:33:31.196Z,20.00
2018-07-17T22:36:35.663Z,20.00
2018-07-17T22:39:39.950Z,20.00
2018-07-17T22:42:44.277Z,20.00
2018-07-17T22:45:48.471Z,19.90
2018-07-17T22:48:53.035Z,20.00
2018-07-17T22:51:57.934Z,20.00
2018-07-17T22:55:02.629Z,19.90
2018-07-17T22:58:08.558Z,19.80
2018-07-17T23:01:12.961Z,19.80
2018-07-17T23:04:17.564Z,19.70
2018-07-17T23:07:21.961Z,19.70
2018-07-17T23:10:26.310Z,19.50
2018-07-17T23:16:34.780Z,19.30
2018-07-17T23:19:38.993Z,19.20
2018-07-17T23:22:50.120Z,19.10
2018-07-17T23:25:54.473Z,19.10
2018-07-17T23:28:58.595Z,19.10
2018-07-17T23:32:02.937Z,19.20
2018-07-17T23:35:07.300Z,19.10
2018-07-17T23:38:11.601Z,19.00
2018-07-17T23:41:15.859Z,19.00
2018-07-17T23:44:20.207Z,18.90
2018-07-17T23:47:24.548Z,18.90
2018-07-17T23:50:28.905Z,18.80
2018-07-17T23:53:34.685Z,18.80
2018-07-17T23:56:38.920Z,18.80
2018-07-17T23:59:43.195Z,18.70
